createdAt,value
2022-12-12T00:04:46.536Z,31.93
2022-12-12T00:09:54.174Z,29.97
2022-12-12T00:14:59.564Z,32.70
2022-12-12T00:20:04.864Z,27.43
2022-12-12T00:25:13.386Z,30.53
2022-12-12T00:30:18.718Z,28.97
2022-12-12T00:35:24.296Z,32.13
2022-12-12T00:40:31.856Z,32.53
2022-12-12T00:45:36.829Z,29.70
2022-12-12T00:50:41.782Z,28.23
2022-12-12T00:55:49.442Z,28.07
2022-12-12T01:00:54.785Z,34.87
2022-12-12T01:05:59.720Z,26.93
2022-12-12T01:11:08.194Z,31.27
2022-12-12T01:16:14.086Z,30.10
2022-12-12T01:21:21.549Z,31.73
2022-12-12T01:26:29.170Z,28.47
2022-12-12T01:31:34.736Z,30.63
2022-12-12T01:36:39.794Z,33.10
2022-12-12T01:41:48.927Z,31.53
2022-12-12T01:46:53.978Z,31.77
2022-12-12T01:52:03.561Z,31.77
2022-12-12T01:57:16.123Z,39.30
2022-12-12T02:02:21.310Z,29.03
2022-12-12T02:07:26.292Z,30.27
2022-12-12T02:12:34.154Z,31.03
2022-12-12T02:18:03.568Z,31.33
2022-12-12T02:23:38.949Z,28.63
2022-12-12T02:29:19.386Z,30.10
2022-12-12T02:34:36.756Z,31.33
2022-12-12T02:39:52.327Z,32.37
2022-12-12T02:45:02.587Z,28.70
2022-12-12T02:50:13.800Z,32.43
2022-12-12T02:55:20.014Z,33.63
2022-12-12T03:00:25.536Z,34.57
2022-12-12T03:05:57.917Z,32.27
2022-12-12T03:11:06.632Z,28.50
2022-12-12T03:16:21.967Z,30.53
2022-12-12T03:21:38.571Z,29.47
2022-12-12T03:26:49.805Z,35.97
2022-12-12T03:32:00.225Z,36.97
2022-12-12T03:37:13.252Z,30.10
2022-12-12T03:42:24.170Z,35.87
2022-12-12T03:47:41.898Z,29.90
2022-12-12T03:52:54.675Z,31.23
2022-12-12T03:58:04.006Z,29.27
2022-12-12T04:03:17.710Z,28.07
2022-12-12T04:08:27.603Z,30.27
2022-12-12T04:13:38.711Z,32.87
2022-12-12T04:18:52.179Z,32.00
2022-12-12T04:24:08.388Z,33.27
2022-12-12T04:29:25.144Z,34.80
2022-12-12T04:34:42.284Z,30.27
2022-12-12T04:39:53.777Z,32.13
2022-12-12T04:45:04.073Z,35.50
2022-12-12T04:50:11.961Z,36.07
2022-12-12T04:55:24.983Z,32.87
2022-12-12T05:00:37.141Z,38.17
2022-12-12T05:05:46.928Z,29.00
2022-12-12T05:10:58.644Z,32.63
2022-12-12T05:16:07.054Z,32.97
2022-12-12T05:21:12.010Z,33.17
2022-12-12T05:26:24.978Z,31.23
2022-12-12T05:31:30.096Z,31.83
2022-12-12T05:36:37.635Z,28.63
2022-12-12T05:41:45.592Z,27.47
2022-12-12T05:46:50.741Z,29.77
2022-12-12T05:51:55.972Z,30.07
2022-12-12T05:57:03.504Z,24.23
2022-12-12T06:02:08.624Z,26.07
2022-12-12T06:07:13.753Z,30.03
2022-12-12T06:12:21.369Z,28.30
2022-12-12T06:17:31.350Z,30.77
2022-12-12T06:22:39.080Z,27.90
2022-12-12T06:27:46.889Z,23.87
2022-12-12T06:32:51.832Z,25.77
2022-12-12T06:37:56.769Z,30.80
2022-12-12T06:43:04.737Z,23.90
2022-12-12T06:48:10.036Z,24.20
2022-12-12T06:53:16.763Z,27.77
2022-12-12T06:58:24.433Z,25.40
2022-12-12T07:03:29.696Z,25.77
2022-12-12T07:08:34.647Z,24.17
2022-12-12T07:13:42.844Z,27.10
2022-12-12T07:18:49.817Z,23.00
2022-12-12T07:23:54.956Z,25.53
2022-12-12T07:29:03.826Z,26.40
2022-12-12T07:34:08.720Z,27.20
2022-12-12T07:39:20.152Z,28.80
2022-12-12T07:44:28.747Z,26.20
2022-12-12T07:49:34.442Z,27.47
2022-12-12T07:54:39.681Z,31.03
2022-12-12T07:59:47.388Z,32.00
2022-12-12T08:04:52.422Z,29.93
2022-12-12T08:10:00.078Z,27.70
2022-12-12T08:15:11.189Z,29.43
2022-12-12T08:20:20.606Z,26.90
2022-12-12T08:25:25.682Z,29.90
2022-12-12T08:30:33.289Z,30.10
2022-12-12T08:35:40.511Z,32.10
2022-12-12T08:40:56.071Z,31.40
2022-12-12T08:46:06.072Z,34.30
2022-12-12T08:51:15.563Z,38.73
2022-12-12T08:56:21.216Z,32.10
2022-12-12T09:01:30.711Z,31.63
2022-12-12T09:06:35.981Z,32.00
2022-12-12T09:11:43.358Z,33.50
2022-12-12T09:16:53.106Z,31.63
2022-12-12T09:21:58.915Z,32.60
2022-12-12T09:27:04.888Z,25.93
2022-12-12T09:32:18.694Z,33.07
2022-12-12T09:37:28.420Z,28.00
2022-12-12T09:42:37.265Z,28.53
2022-12-12T09:47:49.243Z,31.67
2022-12-12T09:52:57.581Z,26.43
2022-12-12T09:58:08.929Z,29.37
2022-12-12T10:03:37.424Z,29.07
2022-12-12T10:08:50.318Z,30.50
2022-12-12T10:13:59.935Z,31.90
2022-12-12T10:19:13.995Z,32.73
2022-12-12T10:24:33.159Z,29.03
2022-12-12T10:29:41.528Z,30.90
2022-12-12T10:35:03.426Z,30.40
2022-12-12T10:40:49.440Z,31.13
2022-12-12T10:46:19.578Z,35.47
2022-12-12T10:51:31.208Z,32.87
2022-12-12T10:56:36.451Z,34.20
2022-12-12T11:02:09.144Z,38.27
2022-12-12T11:07:22.300Z,32.90
2022-12-12T11:12:40.116Z,30.23
2022-12-12T11:17:46.466Z,35.33
2022-12-12T11:23:02.677Z,28.50
2022-12-12T11:28:09.636Z,33.27
2022-12-12T11:33:22.418Z,34.60
2022-12-12T11:38:35.878Z,26.47
2022-12-12T11:43:55.380Z,28.30
2022-12-12T11:49:03.850Z,29.47
2022-12-12T11:54:16.748Z,31.73
2022-12-12T12:00:01.393Z,32.73
2022-12-12T12:05:22.149Z,31.43
2022-12-12T12:10:49.170Z,26.67
2022-12-12T12:16:02.365Z,30.57
2022-12-12T12:21:32.046Z,29.20
2022-12-12T12:26:50.432Z,33.27
2022-12-12T12:32:19.431Z,27.90
2022-12-12T12:37:40.747Z,29.90
2022-12-12T12:43:02.857Z,30.67
2022-12-12T12:48:17.324Z,31.17
2022-12-12T12:53:35.304Z,28.93
2022-12-12T12:58:47.648Z,28.17
2022-12-12T13:03:59.761Z,32.13
2022-12-12T13:09:18.814Z,27.30
2022-12-12T13:14:40.990Z,28.57
2022-12-12T13:19:50.239Z,28.20
2022-12-12T13:25:02.512Z,23.83
2022-12-12T13:30:23.500Z,26.30
2022-12-12T13:35:33.891Z,25.40
2022-12-12T13:40:54.062Z,25.57
2022-12-12T13:46:24.481Z,21.30
2022-12-12T13:51:54.685Z,23.63
2022-12-12T13:57:14.650Z,20.07
2022-12-12T14:02:33.631Z,19.13
2022-12-12T14:07:42.595Z,21.57
2022-12-12T14:13:09.544Z,17.80
2022-12-12T14:18:46.192Z,17.60
2022-12-12T14:24:50.389Z,19.37
2022-12-12T14:30:07.940Z,20.60
2022-12-12T14:35:30.476Z,20.57
2022-12-12T14:40:44.848Z,17.50
2022-12-12T14:45:59.161Z,21.77
2022-12-12T14:51:09.321Z,22.43
2022-12-12T14:56:25.317Z,20.93
2022-12-12T15:01:35.756Z,21.07
2022-12-12T15:06:45.939Z,21.80
2022-12-12T15:11:55.070Z,20.63
2022-12-12T15:17:05.870Z,22.67
2022-12-12T15:22:14.303Z,22.87
2022-12-12T15:27:30.754Z,18.10
2022-12-12T15:32:51.911Z,25.17
2022-12-12T15:38:33.289Z,26.03
2022-12-12T15:43:57.497Z,26.97
2022-12-12T15:49:04.564Z,29.67
2022-12-12T15:54:39.735Z,29.67
2022-12-12T15:59:57.511Z,28.27
2022-12-12T16:05:29.861Z,30.50
2022-12-12T16:11:04.684Z,28.00
2022-12-12T16:16:48.158Z,29.97
2022-12-12T16:21:53.271Z,32.00
2022-12-12T16:27:00.657Z,31.90
2022-12-12T16:32:08.544Z,33.53
2022-12-12T16:37:25.511Z,28.50
2022-12-12T16:42:31.311Z,30.23
2022-12-12T16:47:39.393Z,35.73
2022-12-12T16:52:44.307Z,32.43
2022-12-12T16:57:49.737Z,27.77
2022-12-12T17:02:57.392Z,27.70
2022-12-12T17:08:02.455Z,29.43
2022-12-12T17:13:11.502Z,32.63
2022-12-12T17:18:19.146Z,26.20
2022-12-12T17:23:31.018Z,26.97
2022-12-12T17:28:37.073Z,29.63
2022-12-12T17:33:50.625Z,28.60
2022-12-12T17:38:56.781Z,29.60
2022-12-12T17:44:01.764Z,27.63
2022-12-12T17:49:11.631Z,25.83
2022-12-12T17:54:16.645Z,31.13
2022-12-12T17:59:21.617Z,25.67
2022-12-12T18:04:29.666Z,28.17
2022-12-12T18:09:35.896Z,26.67
2022-12-12T18:14:57.236Z,26.30
2022-12-12T18:20:05.113Z,25.33
2022-12-12T18:25:11.428Z,27.37
2022-12-12T18:30:17.533Z,26.57
2022-12-12T18:35:27.652Z,24.40
2022-12-12T18:40:35.920Z,29.43
2022-12-12T18:45:41.242Z,28.00
2022-12-12T18:50:51.966Z,27.43
2022-12-12T18:55:56.922Z,27.97
2022-12-12T19:01:07.196Z,28.93
2022-12-12T19:06:21.905Z,29.23
2022-12-12T19:11:28.950Z,30.80
2022-12-12T19:16:34.823Z,27.03
2022-12-12T19:21:43.158Z,29.70
2022-12-12T19:26:50.762Z,35.07
2022-12-12T19:31:58.782Z,34.50
2022-12-12T19:37:07.294Z,31.60
2022-12-12T19:42:13.874Z,31.80
2022-12-12T19:47:19.828Z,34.30
2022-12-12T19:52:30.486Z,33.00
2022-12-12T19:57:36.670Z,30.60
2022-12-12T20:02:44.303Z,31.87
2022-12-12T20:07:54.153Z,31.20
2022-12-12T20:13:00.756Z,32.73
2022-12-12T20:18:09.591Z,36.13
2022-12-12T20:23:21.249Z,33.07
2022-12-12T20:28:26.397Z,31.00
2022-12-12T20:33:31.597Z,32.97
2022-12-12T20:38:40.639Z,30.77
2022-12-12T20:43:46.419Z,30.73
2022-12-12T20:48:53.740Z,32.97
2022-12-12T20:54:06.098Z,30.97
2022-12-12T20:59:14.605Z,30.53
2022-12-12T21:04:21.197Z,30.33
2022-12-12T21:09:28.909Z,33.50
2022-12-12T21:14:36.054Z,31.83
2022-12-12T21:19:41.619Z,31.33
2022-12-12T21:24:51.547Z,30.13
2022-12-12T21:29:59.280Z,30.03
2022-12-12T21:35:04.362Z,29.70
2022-12-12T21:40:15.438Z,30.00
2022-12-12T21:45:20.446Z,33.33
2022-12-12T21:50:30.560Z,30.33
2022-12-12T21:55:41.899Z,27.10
2022-12-12T22:00:46.850Z,26.27
2022-12-12T22:05:51.932Z,28.60
2022-12-12T22:11:02.419Z,28.80
2022-12-12T22:16:10.693Z,28.00
2022-12-12T22:21:19.164Z,27.60
2022-12-12T22:26:29.053Z,31.90
2022-12-12T22:31:37.552Z,28.80
2022-12-12T22:36:46.420Z,25.80
2022-12-12T22:41:54.615Z,27.83
2022-12-12T22:46:59.602Z,28.47
2022-12-12T22:52:04.574Z,25.83
2022-12-12T22:57:12.167Z,28.23
2022-12-12T23:02:23.126Z,26.83
2022-12-12T23:07:30.270Z,26.17
2022-12-12T23:12:40.015Z,27.53
2022-12-12T23:17:45.042Z,25.17
2022-12-12T23:22:49.986Z,25.20
2022-12-12T23:27:57.738Z,26.50
2022-12-12T23:33:03.215Z,23.47
2022-12-12T23:38:08.230Z,26.17
2022-12-12T23:43:20.387Z,24.40
2022-12-12T23:48:27.187Z,26.00
2022-12-12T23:53:35.198Z,23.33
2022-12-12T23:58:44.870Z,22.77
